Time;durP1;ratioP1;P1;durP2;ratioP2;P2;SDS_P1;SDS_P2;PMS_P1;PMS_P2;Temp;Humidity;BMP_temperature;BMP_pressure;BME280_temperature;BME280_humidity;BME280_pressure;Samples;Min_cycle;Max_cycle;Signal;HPM_P1;HPM_P2
2023/12/11 00:00:20;;;;;;;5.03;1.50;;;;;;;6.50;100.00;99587.47;5029142;28;20207;-71
2023/12/11 00:02:46;;;;;;;6.97;1.50;;;;;;;6.47;100.00;99577.63;5031244;28;20271;-71
2023/12/11 00:05:15;;;;;;;3.93;1.27;;;;;;;6.44;100.00;99586.91;5027546;28;20633;-72
2023/12/11 00:07:41;;;;;;;9.63;1.57;;;;;;;6.40;100.00;99587.84;5029940;28;20204;-72
2023/12/11 00:10:10;;;;;;;4.60;1.20;;;;;;;6.36;100.00;99579.09;5035196;28;20681;-71
2023/12/11 00:12:36;;;;;;;3.10;1.33;;;;;;;6.36;100.00;99573.84;5029175;28;22344;-72
2023/12/11 00:15:03;;;;;;;6.57;1.50;;;;;;;6.35;100.00;99574.94;5033216;28;20716;-72
2023/12/11 00:17:30;;;;;;;12.00;1.60;;;;;;;6.33;100.00;99577.88;5036809;28;20259;-72
2023/12/11 00:19:56;;;;;;;4.63;1.63;;;;;;;6.32;100.00;99573.72;5028638;28;20205;-71
2023/12/11 00:22:23;;;;;;;9.07;1.67;;;;;;;6.31;100.00;99572.19;5034380;28;20200;-71
2023/12/11 00:24:49;;;;;;;7.27;1.50;;;;;;;6.29;100.00;99555.25;5030853;28;20225;-72
2023/12/11 00:27:17;;;;;;;10.53;2.37;;;;;;;6.28;100.00;99546.66;5034107;28;20229;-71
2023/12/11 00:29:43;;;;;;;5.60;1.73;;;;;;;6.26;100.00;99543.56;5034647;28;20295;-72
2023/12/11 00:32:09;;;;;;;9.63;2.50;;;;;;;6.26;100.00;99527.84;5033788;28;20199;-72
2023/12/11 00:34:36;;;;;;;4.53;1.67;;;;;;;6.24;100.00;99534.50;5028313;28;20208;-72
2023/12/11 00:37:02;;;;;;;4.90;1.53;;;;;;;6.22;100.00;99521.69;5028465;28;20227;-71
2023/12/11 00:39:28;;;;;;;6.53;2.00;;;;;;;6.21;100.00;99529.91;5029197;28;20814;-71
2023/12/11 00:41:55;;;;;;;5.87;1.50;;;;;;;6.19;100.00;99521.56;5025073;28;20208;-72
2023/12/11 00:44:22;;;;;;;3.77;1.20;;;;;;;6.18;100.00;99515.59;5023271;28;20226;-72
2023/12/11 00:46:49;;;;;;;6.23;1.90;;;;;;;6.16;100.00;99506.50;5024232;28;20226;-71
2023/12/11 00:49:15;;;;;;;5.67;1.60;;;;;;;6.14;100.00;99495.56;5024149;28;20191;-72
2023/12/11 00:51:41;;;;;;;6.23;1.70;;;;;;;6.13;100.00;99494.03;5028537;28;20274;-72
2023/12/11 00:54:08;;;;;;;2.07;1.30;;;;;;;6.10;100.00;99484.97;5022482;28;20203;-71
2023/12/11 00:56:34;;;;;;;3.63;1.20;;;;;;;6.08;100.00;99471.44;5026581;28;20235;-71
2023/12/11 00:59:00;;;;;;;4.30;1.23;;;;;;;6.07;100.00;99472.50;5022270;28;20208;-71
2023/12/11 01:01:28;;;;;;;5.93;1.13;;;;;;;6.04;100.00;99457.44;5025600;28;20211;-73
2023/12/11 01:03:54;;;;;;;3.27;1.13;;;;;;;6.03;100.00;99450.66;5024833;28;20200;-72
2023/12/11 01:06:21;;;;;;;6.63;1.13;;;;;;;6.02;100.00;99436.00;5022978;28;20220;-72
2023/12/11 01:08:47;;;;;;;5.67;1.50;;;;;;;6.01;100.00;99444.22;5027294;28;20290;-72
2023/12/11 01:11:13;;;;;;;3.13;1.20;;;;;;;5.99;100.00;99434.03;5028367;28;20609;-72
2023/12/11 01:13:40;;;;;;;4.37;1.13;;;;;;;5.99;100.00;99426.19;5026324;28;20200;-71
2023/12/11 01:16:07;;;;;;;3.17;1.20;;;;;;;5.98;100.00;99426.50;5022674;28;20219;-72
2023/12/11 01:18:34;;;;;;;2.30;1.10;;;;;;;5.95;100.00;99424.53;5031940;28;20207;-71
2023/12/11 01:21:00;;;;;;;3.70;1.10;;;;;;;5.94;100.00;99404.66;5027192;28;20598;-71
2023/12/11 01:23:27;;;;;;;6.33;1.07;;;;;;;5.91;100.00;99413.91;5023921;28;20203;-72
2023/12/11 01:25:53;;;;;;;3.83;1.17;;;;;;;5.91;100.00;99407.94;5022337;28;20215;-72
2023/12/11 01:28:19;;;;;;;2.50;0.90;;;;;;;5.90;100.00;99396.66;5021419;28;20203;-71
2023/12/11 01:30:46;;;;;;;5.47;1.03;;;;;;;5.89;100.00;99394.38;5030677;28;20202;-71
2023/12/11 01:33:13;;;;;;;6.53;1.40;;;;;;;5.89;100.00;99395.16;5029880;28;20851;-71
2023/12/11 01:35:41;;;;;;;4.33;1.20;;;;;;;5.89;100.00;99384.66;5024469;28;20312;-71
2023/12/11 01:38:07;;;;;;;5.93;0.93;;;;;;;5.87;100.00;99375.59;5021205;28;20769;-71
2023/12/11 01:40:34;;;;;;;5.07;1.13;;;;;;;5.86;100.00;99376.69;5023860;28;20215;-72
2023/12/11 01:43:11;;;;;;;4.00;1.30;;;;;;;5.85;100.00;99369.94;5023131;28;20207;-71
2023/12/11 01:45:38;;;;;;;3.07;0.73;;;;;;;5.85;100.00;99367.31;5022732;28;20701;-72
2023/12/11 01:48:05;;;;;;;7.40;1.83;;;;;;;5.84;100.00;99356.06;5022092;28;20208;-71
2023/12/11 01:50:31;;;;;;;8.60;1.47;;;;;;;5.84;100.00;99363.13;5024813;28;20203;-72
2023/12/11 01:53:00;;;;;;;2.97;1.00;;;;;;;5.82;100.00;99363.47;5027405;28;20200;-72
2023/12/11 01:55:26;;;;;;;7.53;0.90;;;;;;;5.84;100.00;99355.28;5026646;28;20204;-72
2023/12/11 01:57:53;;;;;;;4.93;1.40;;;;;;;5.84;100.00;99347.41;5031080;28;20600;-71
2023/12/11 02:00:20;;;;;;;4.03;1.17;;;;;;;5.84;100.00;99344.81;5029225;28;20590;-72
2023/12/11 02:02:47;;;;;;;4.80;1.30;;;;;;;5.83;100.00;99343.28;5020774;28;20227;-72
2023/12/11 02:05:13;;;;;;;2.17;1.53;;;;;;;5.83;100.00;99338.03;5020550;28;20223;-71
2023/12/11 02:07:39;;;;;;;4.93;1.43;;;;;;;5.84;100.00;99336.94;5022616;28;20200;-71
2023/12/11 02:10:09;;;;;;;2.63;1.23;;;;;;;5.86;100.00;99334.78;5022231;28;20208;-71
2023/12/11 02:12:35;;;;;;;4.13;1.10;;;;;;;5.86;100.00;99313.81;5026450;28;20232;-70
2023/12/11 02:15:01;;;;;;;6.60;1.57;;;;;;;5.87;100.00;99326.59;5022037;28;20211;-72
2023/12/11 02:17:28;;;;;;;5.87;1.80;;;;;;;5.88;100.00;99314.25;5022033;28;20236;-71
2023/12/11 02:19:54;;;;;;;6.60;1.30;;;;;;;5.88;100.00;99312.41;5021269;28;20576;-72
2023/12/11 02:22:21;;;;;;;5.33;1.20;;;;;;;5.89;100.00;99313.94;5028132;28;20573;-71
2023/12/11 02:24:50;;;;;;;3.07;1.27;;;;;;;5.91;100.00;99311.00;5026525;28;20243;-72
2023/12/11 02:27:17;;;;;;;5.13;1.30;;;;;;;5.93;100.00;99306.19;5024539;28;20230;-72
2023/12/11 02:29:44;;;;;;;4.23;1.37;;;;;;;5.93;100.00;99300.94;5027325;28;21632;-72
2023/12/11 02:32:10;;;;;;;4.37;1.50;;;;;;;5.94;100.00;99300.63;5029923;28;20203;-71
2023/12/11 02:34:36;;;;;;;3.47;1.27;;;;;;;5.97;100.00;99301.84;5028296;28;20200;-72
2023/12/11 02:37:03;;;;;;;6.10;1.43;;;;;;;5.96;100.00;99303.69;5030159;28;20962;-71
2023/12/11 02:39:29;;;;;;;3.83;1.03;;;;;;;5.98;100.00;99309.38;5030670;28;20204;-72
2023/12/11 02:41:55;;;;;;;4.13;1.33;;;;;;;5.98;100.00;99314.63;5027517;28;20214;-71
2023/12/11 02:44:23;;;;;;;3.17;1.23;;;;;;;6.00;100.00;99312.44;5027505;28;20210;-71
2023/12/11 02:46:49;;;;;;;4.43;1.30;;;;;;;6.02;100.00;99312.09;5025596;28;20456;-71
2023/12/11 02:49:16;;;;;;;5.23;1.87;;;;;;;6.03;100.00;99297.91;5033441;28;20226;-71
2023/12/11 02:51:42;;;;;;;5.10;1.30;;;;;;;6.05;100.00;99299.13;5028833;28;20335;-72
2023/12/11 02:54:08;;;;;;;5.17;1.57;;;;;;;6.07;100.00;99310.03;5021064;28;20918;-72
2023/12/11 02:56:38;;;;;;;4.53;1.33;;;;;;;6.09;100.00;99313.09;5022143;28;20223;-72
2023/12/11 02:59:04;;;;;;;8.00;1.47;;;;;;;6.12;100.00;99301.19;5021327;28;20210;-72
2023/12/11 03:01:32;;;;;;;4.87;1.37;;;;;;;6.12;100.00;99309.81;5021073;28;20208;-72
2023/12/11 03:03:58;;;;;;;3.33;1.30;;;;;;;6.12;100.00;99307.19;5025728;28;20203;-71
2023/12/11 03:06:26;;;;;;;3.93;1.40;;;;;;;6.16;100.00;99300.22;5027667;28;20230;-71
2023/12/11 03:08:52;;;;;;;7.97;1.60;;;;;;;6.17;100.00;99303.59;5025494;28;20208;-72
2023/12/11 03:11:19;;;;;;;4.67;1.10;;;;;;;6.18;100.00;99308.53;5023326;28;20203;-71
2023/12/11 03:13:45;;;;;;;3.87;1.40;;;;;;;6.20;100.00;99305.56;5020671;28;21646;-72
2023/12/11 03:16:13;;;;;;;2.73;1.20;;;;;;;6.22;100.00;99308.63;5022977;28;20227;-71
2023/12/11 03:18:40;;;;;;;2.80;1.20;;;;;;;6.22;100.00;99309.38;5026233;28;20569;-72
2023/12/11 03:21:07;;;;;;;7.63;1.53;;;;;;;6.24;100.00;99316.94;5027382;28;20204;-72
2023/12/11 03:23:33;;;;;;;5.50;1.50;;;;;;;6.26;100.00;99314.75;5027612;28;20239;-72
2023/12/11 03:26:00;;;;;;;8.03;1.20;;;;;;;6.27;100.00;99311.78;5022091;28;20822;-72
2023/12/11 03:28:28;;;;;;;4.73;1.50;;;;;;;6.29;100.00;99314.88;5028941;28;20211;-72
2023/12/11 03:30:54;;;;;;;3.47;1.40;;;;;;;6.30;100.00;99307.75;5029884;28;20231;-70
2023/12/11 03:33:21;;;;;;;6.53;1.53;;;;;;;6.31;100.00;99306.69;5027865;28;21044;-71
2023/12/11 03:35:48;;;;;;;4.47;1.13;;;;;;;6.34;100.00;99309.41;5027812;28;20208;-72
2023/12/11 03:38:14;;;;;;;4.93;1.93;;;;;;;6.38;100.00;99299.03;5025432;28;20211;-71
2023/12/11 03:40:41;;;;;;;3.53;1.10;;;;;;;6.41;100.00;99311.47;5032297;28;20210;-71
2023/12/11 03:43:07;;;;;;;6.37;1.80;;;;;;;6.45;100.00;99314.97;5026661;28;20211;-71
2023/12/11 03:45:33;;;;;;;3.40;1.40;;;;;;;6.48;100.00;99309.81;5030728;28;20323;-72
2023/12/11 03:48:00;;;;;;;4.93;1.37;;;;;;;6.53;100.00;99314.84;5027162;28;20207;-71
2023/12/11 03:50:26;;;;;;;2.93;1.27;;;;;;;6.58;100.00;99304.13;5033111;28;20200;-72
2023/12/11 03:52:54;;;;;;;5.43;1.17;;;;;;;6.66;100.00;99315.59;5031348;28;20192;-71
2023/12/11 03:55:20;;;;;;;3.70;1.13;;;;;;;6.71;100.00;99323.25;5032663;28;20384;-72
2023/12/11 03:57:47;;;;;;;8.10;1.80;;;;;;;6.76;100.00;99317.78;5028118;28;20200;-71
2023/12/11 04:00:14;;;;;;;5.37;1.30;;;;;;;6.81;100.00;99317.56;5031476;28;20283;-71
2023/12/11 04:02:40;;;;;;;4.17;1.20;;;;;;;6.84;100.00;99307.16;5025893;28;20588;-71
2023/12/11 04:05:07;;;;;;;4.03;1.37;;;;;;;6.90;100.00;99318.97;5023508;28;20215;-71
2023/12/11 04:07:34;;;;;;;4.87;1.40;;;;;;;6.94;100.00;99311.97;5028224;28;20226;-71
2023/12/11 04:10:03;;;;;;;5.43;1.20;;;;;;;6.98;100.00;99322.53;5024554;28;20203;-71
2023/12/11 04:12:29;;;;;;;9.37;2.17;;;;;;;6.99;100.00;99318.84;5026615;28;20203;-71
2023/12/11 04:14:55;;;;;;;4.03;1.00;;;;;;;7.00;100.00;99328.25;5020934;28;20403;-69
2023/12/11 04:17:22;;;;;;;4.90;1.00;;;;;;;6.97;100.00;99316.56;5022142;28;20223;-71
2023/12/11 04:19:49;;;;;;;6.73;1.00;;;;;;;6.95;100.00;99316.09;5024836;28;20203;-71
2023/12/11 04:22:15;;;;;;;4.60;1.00;;;;;;;6.93;100.00;99325.41;5023010;28;20620;-72
2023/12/11 04:24:41;;;;;;;2.00;1.20;;;;;;;6.90;100.00;99320.84;5024941;28;20215;-71
2023/12/11 04:27:09;;;;;;;2.73;1.17;;;;;;;6.85;100.00;99328.94;5023935;28;20776;-71
2023/12/11 04:29:35;;;;;;;4.50;0.93;;;;;;;6.82;100.00;99338.22;5028819;28;20208;-72
2023/12/11 04:32:02;;;;;;;4.57;1.40;;;;;;;6.80;100.00;99334.41;5033390;28;20203;-72
2023/12/11 04:34:28;;;;;;;4.27;1.10;;;;;;;6.77;100.00;99333.19;5029884;28;20214;-70
2023/12/11 04:36:54;;;;;;;3.93;1.07;;;;;;;6.77;100.00;99337.66;5031246;28;20223;-71
2023/12/11 04:39:21;;;;;;;6.27;1.17;;;;;;;6.75;100.00;99335.41;5032637;28;20199;-71
2023/12/11 04:41:47;;;;;;;4.30;1.20;;;;;;;6.75;100.00;99343.28;5032366;28;20545;-70
2023/12/11 04:44:15;;;;;;;3.73;1.20;;;;;;;6.77;100.00;99329.81;5028826;28;20199;-70
2023/12/11 04:46:41;;;;;;;3.57;1.10;;;;;;;6.77;100.00;99338.44;5030881;28;20215;-71
2023/12/11 04:49:07;;;;;;;3.87;1.20;;;;;;;6.77;100.00;99351.56;5033874;28;20200;-71
2023/12/11 04:51:34;;;;;;;7.13;1.57;;;;;;;6.79;100.00;99344.13;5032227;28;20202;-72
2023/12/11 04:54:00;;;;;;;5.20;1.23;;;;;;;6.84;100.00;99340.53;5027396;28;20195;-72
2023/12/11 04:56:26;;;;;;;3.80;1.20;;;;;;;6.85;100.00;99340.19;5032518;28;20228;-71
2023/12/11 04:58:53;;;;;;;5.00;1.20;;;;;;;6.88;100.00;99341.41;5031577;28;20203;-72
2023/12/11 05:01:21;;;;;;;3.03;1.10;;;;;;;6.87;100.00;99338.00;5021447;28;20559;-71
2023/12/11 05:03:48;;;;;;;1.50;1.10;;;;;;;6.88;100.00;99344.03;5021806;28;20236;-71
2023/12/11 05:06:14;;;;;;;4.10;1.30;;;;;;;6.86;100.00;99346.97;5022445;28;21013;-71
2023/12/11 05:08:40;;;;;;;4.50;1.17;;;;;;;6.88;100.00;99336.16;5039118;28;20601;-71
2023/12/11 05:11:07;;;;;;;5.13;1.27;;;;;;;6.88;100.00;99334.28;5022872;28;20199;-71
2023/12/11 05:13:33;;;;;;;3.40;1.20;;;;;;;6.91;100.00;99335.47;5024400;28;20211;-71
2023/12/11 05:18:38;;;;;;;5.57;1.20;;;;;;;6.93;100.00;99341.91;5006666;28;20215;-70
2023/12/11 05:21:09;;;;;;;7.53;1.33;;;;;;;6.96;100.00;99343.13;5009401;28;20207;-70
2023/12/11 05:23:35;;;;;;;4.17;1.27;;;;;;;6.98;100.00;99327.78;5012169;28;20212;-68
2023/12/11 05:26:02;;;;;;;5.30;1.23;;;;;;;6.99;100.00;99345.09;5008670;28;20224;-68
2023/12/11 05:28:28;;;;;;;2.50;1.33;;;;;;;6.96;100.00;99343.91;4984265;28;20874;-69
2023/12/11 05:30:54;;;;;;;3.00;1.03;;;;;;;6.94;100.00;99347.94;4978754;28;20208;-70
2023/12/11 05:33:20;;;;;;;4.83;1.13;;;;;;;6.92;100.00;99344.88;4979806;28;20220;-70
2023/12/11 05:35:48;;;;;;;3.63;1.30;;;;;;;6.92;100.00;99350.13;4988098;28;20215;-70
2023/12/11 05:38:14;;;;;;;6.90;1.50;;;;;;;6.90;100.00;99350.47;4991085;28;20722;-70
2023/12/11 05:40:41;;;;;;;3.07;0.97;;;;;;;6.90;100.00;99347.06;4991761;28;20292;-70
2023/12/11 05:43:07;;;;;;;6.17;1.17;;;;;;;6.86;100.00;99349.59;4992598;28;20476;-69
2023/12/11 05:45:34;;;;;;;5.10;1.57;;;;;;;6.85;100.00;99347.28;4989723;28;20682;-69
2023/12/11 05:48:00;;;;;;;3.60;1.30;;;;;;;6.83;100.00;99357.38;4988253;28;20224;-70
2023/12/11 05:50:26;;;;;;;3.37;1.07;;;;;;;6.77;100.00;99359.44;4988223;28;20213;-68
2023/12/11 05:52:54;;;;;;;3.50;1.20;;;;;;;6.73;100.00;99357.81;4988205;28;20204;-69
2023/12/11 05:55:20;;;;;;;4.17;1.20;;;;;;;6.69;100.00;99357.69;4986795;28;20447;-68
2023/12/11 05:57:47;;;;;;;3.73;1.20;;;;;;;6.69;100.00;99364.78;4989666;28;20217;-70
2023/12/11 06:00:14;;;;;;;5.63;1.27;;;;;;;6.66;100.00;99360.19;4984877;28;20201;-68
2023/12/11 06:02:40;;;;;;;2.37;1.23;;;;;;;6.65;100.00;99371.78;4980196;28;20217;-68
2023/12/11 06:05:08;;;;;;;4.13;1.47;;;;;;;6.65;100.00;99371.78;4987811;28;20270;-70
2023/12/11 06:07:34;;;;;;;2.77;1.20;;;;;;;6.67;100.00;99370.38;4989327;28;20244;-70
2023/12/11 06:10:02;;;;;;;3.83;1.10;;;;;;;6.70;100.00;99372.34;4986897;28;20231;-68
2023/12/11 06:12:28;;;;;;;2.00;0.97;;;;;;;6.74;100.00;99378.44;4989135;28;20219;-69
2023/12/11 06:14:55;;;;;;;2.23;1.10;;;;;;;6.78;100.00;99370.69;4990497;28;20209;-70
2023/12/11 06:17:21;;;;;;;10.13;1.73;;;;;;;6.82;100.00;99369.72;4990199;28;20231;-69
2023/12/11 06:19:48;;;;;;;4.97;1.13;;;;;;;6.88;100.00;99375.50;4990176;28;20205;-70
2023/12/11 06:22:14;;;;;;;4.17;1.30;;;;;;;6.94;100.00;99366.31;4991421;28;20212;-69
2023/12/11 06:24:40;;;;;;;4.73;1.17;;;;;;;6.98;100.00;99375.03;4991924;28;20216;-70
2023/12/11 06:27:08;;;;;;;7.83;1.50;;;;;;;7.01;100.00;99382.25;4993963;28;20277;-69
2023/12/11 06:29:35;;;;;;;7.83;1.83;;;;;;;7.07;100.00;99379.09;4990441;28;20193;-69
2023/12/11 06:32:01;;;;;;;4.63;1.50;;;;;;;7.12;100.00;99375.47;4992566;28;20208;-70
2023/12/11 06:34:28;;;;;;;6.93;1.67;;;;;;;7.17;100.00;99381.25;4992555;28;20204;-70
2023/12/11 06:36:54;;;;;;;7.20;1.53;;;;;;;7.21;100.00;99376.09;4997437;28;20233;-70
2023/12/11 06:39:20;;;;;;;5.33;1.23;;;;;;;7.20;100.00;99383.19;4997608;28;20213;-70
2023/12/11 06:41:46;;;;;;;4.70;1.27;;;;;;;7.21;100.00;99384.75;4998707;28;20212;-70
2023/12/11 06:44:14;;;;;;;6.37;1.10;;;;;;;7.20;100.00;99385.81;4999891;28;20230;-69
2023/12/11 06:46:40;;;;;;;3.53;1.30;;;;;;;7.22;100.00;99388.13;4999485;28;20223;-70
2023/12/11 06:49:07;;;;;;;5.13;1.30;;;;;;;7.19;100.00;99386.94;4997969;28;20198;-70
2023/12/11 06:51:34;;;;;;;4.33;1.30;;;;;;;7.18;100.00;99390.66;5000159;28;20205;-69
2023/12/11 06:54:01;;;;;;;4.90;1.20;;;;;;;7.18;100.00;99382.00;4996609;28;20280;-68
2023/12/11 06:56:30;;;;;;;3.07;1.03;;;;;;;7.15;100.00;99386.06;4999252;28;20227;-69
2023/12/11 06:58:57;;;;;;;9.07;1.30;;;;;;;7.12;100.00;99385.97;4999680;28;20711;-68
2023/12/11 07:01:28;;;;;;;5.87;1.40;;;;;;;7.08;100.00;99388.47;4996224;28;20216;-69
2023/12/11 07:03:54;;;;;;;3.47;1.13;;;;;;;7.06;100.00;99393.31;4993914;28;20583;-70
2023/12/11 07:06:20;;;;;;;7.93;1.40;;;;;;;7.01;100.00;99388.28;4997384;28;20225;-70
2023/12/11 07:08:47;;;;;;;6.60;1.60;;;;;;;6.96;100.00;99382.47;4997702;28;20213;-70
2023/12/11 07:11:13;;;;;;;3.83;1.40;;;;;;;6.91;100.00;99395.81;4994042;28;20287;-70
2023/12/11 07:13:41;;;;;;;2.83;1.40;;;;;;;6.84;100.00;99393.75;4999752;28;20213;-67
2023/12/11 07:16:08;;;;;;;9.70;1.50;;;;;;;6.81;100.00;99398.88;4998188;28;20343;-70
2023/12/11 07:18:36;;;;;;;7.13;1.80;;;;;;;6.76;100.00;99394.63;5001954;28;20205;-70
2023/12/11 07:21:02;;;;;;;4.80;1.27;;;;;;;6.77;100.00;99398.00;4998899;28;20223;-69
2023/12/11 07:23:29;;;;;;;3.60;1.30;;;;;;;6.78;100.00;99399.56;5007011;28;20201;-70
2023/12/11 07:25:55;;;;;;;8.23;1.90;;;;;;;6.79;100.00;99406.34;5002917;28;20786;-69
2023/12/11 07:28:22;;;;;;;3.57;1.50;;;;;;;6.81;100.00;99412.78;5004255;28;20236;-70
2023/12/11 07:30:48;;;;;;;5.60;1.67;;;;;;;6.85;100.00;99410.25;5001050;28;20215;-69
2023/12/11 07:33:14;;;;;;;6.30;1.37;;;;;;;6.88;100.00;99410.38;5003556;28;20219;-70
2023/12/11 07:35:42;;;;;;;13.40;2.80;;;;;;;6.93;100.00;99417.25;5004247;28;20200;-70
2023/12/11 07:38:08;;;;;;;5.90;1.57;;;;;;;6.94;100.00;99411.66;5000123;28;20231;-69
2023/12/11 07:40:34;;;;;;;4.90;1.70;;;;;;;6.96;100.00;99427.88;5002673;28;20227;-70
2023/12/11 07:43:01;;;;;;;7.00;1.37;;;;;;;6.96;100.00;99414.75;4997046;28;20220;-70
2023/12/11 07:45:29;;;;;;;4.93;1.30;;;;;;;6.94;100.00;99427.41;4995292;28;20208;-70
2023/12/11 07:47:55;;;;;;;4.70;1.30;;;;;;;6.93;100.00;99420.66;4998990;28;20229;-67
2023/12/11 07:50:21;;;;;;;6.97;1.10;;;;;;;6.92;100.00;99413.09;4999691;28;20282;-70
2023/12/11 07:52:49;;;;;;;4.60;1.23;;;;;;;6.92;100.00;99413.88;4998293;28;20216;-70
2023/12/11 07:55:15;;;;;;;3.53;1.17;;;;;;;6.91;100.00;99417.59;4998538;28;20260;-70
2023/12/11 07:57:42;;;;;;;7.93;1.57;;;;;;;6.91;100.00;99422.06;5000102;28;20221;-70
2023/12/11 08:00:09;;;;;;;3.77;1.27;;;;;;;6.90;100.00;99412.66;4998710;28;20304;-69
2023/12/11 08:02:36;;;;;;;5.00;1.80;;;;;;;6.88;100.00;99412.25;5002409;28;20204;-70
2023/12/11 08:05:03;;;;;;;5.13;1.00;;;;;;;6.87;100.00;99408.84;4997429;28;20442;-70
2023/12/11 08:07:29;;;;;;;7.37;1.73;;;;;;;6.88;100.00;99417.50;4999511;28;20228;-69
2023/12/11 08:09:57;;;;;;;6.23;2.13;;;;;;;6.88;100.00;99414.88;4999473;28;20217;-70
2023/12/11 08:12:25;;;;;;;6.00;1.33;;;;;;;6.89;100.00;99413.78;4999096;28;20212;-69
2023/12/11 08:14:51;;;;;;;4.40;1.50;;;;;;;6.91;100.00;99408.94;4999958;28;20263;-70
2023/12/11 08:17:17;;;;;;;7.30;1.33;;;;;;;6.89;100.00;99411.88;4999906;28;20234;-69
2023/12/11 08:19:44;;;;;;;4.20;1.23;;;;;;;6.87;100.00;99403.59;5002301;28;20224;-68
2023/12/11 08:22:10;;;;;;;11.90;1.40;;;;;;;6.86;100.00;99407.31;4996932;28;20346;-70
2023/12/11 08:24:37;;;;;;;3.40;1.20;;;;;;;6.85;100.00;99412.88;4999939;28;20812;-70
2023/12/11 08:27:07;;;;;;;2.27;1.10;;;;;;;6.84;100.00;99414.72;4997342;28;20248;-68
2023/12/11 08:29:34;;;;;;;5.70;1.53;;;;;;;6.83;100.00;99413.22;4995892;28;20206;-69
2023/12/11 08:32:01;;;;;;;6.30;1.97;;;;;;;6.83;100.00;99407.97;5000637;28;20220;-70
2023/12/11 08:34:27;;;;;;;6.33;1.40;;;;;;;6.82;100.00;99409.06;4999908;28;20255;-69
2023/12/11 08:36:54;;;;;;;5.03;1.27;;;;;;;6.83;100.00;99409.84;4999248;28;20232;-69
2023/12/11 08:39:20;;;;;;;5.60;1.53;;;;;;;6.85;100.00;99407.63;4999752;28;20594;-70
2023/12/11 08:41:47;;;;;;;7.80;1.87;;;;;;;6.88;100.00;99401.75;5001986;28;20213;-70
2023/12/11 08:44:15;;;;;;;5.23;1.93;;;;;;;6.93;100.00;99404.13;5001576;28;20216;-69
2023/12/11 08:46:42;;;;;;;5.40;1.53;;;;;;;6.99;100.00;99408.09;4997208;28;20225;-69
2023/12/11 08:49:09;;;;;;;8.13;1.57;;;;;;;7.05;100.00;99402.25;4998826;28;20719;-68
2023/12/11 08:51:35;;;;;;;3.50;1.30;;;;;;;7.14;100.00;99402.91;5001107;28;20721;-70
2023/12/11 08:54:02;;;;;;;6.23;1.47;;;;;;;7.27;100.00;99401.81;4995892;28;20295;-69
2023/12/11 08:56:28;;;;;;;6.77;1.67;;;;;;;7.35;100.00;99394.91;4998004;28;20256;-69
2023/12/11 08:58:55;;;;;;;3.17;1.30;;;;;;;7.44;100.00;99398.13;4999362;28;20205;-70
2023/12/11 09:01:22;;;;;;;6.80;1.50;;;;;;;7.54;100.00;99389.78;5002334;28;20202;-70
2023/12/11 09:03:49;;;;;;;7.07;1.67;;;;;;;7.61;100.00;99387.38;4995846;28;20293;-70
2023/12/11 09:06:15;;;;;;;6.20;1.50;;;;;;;7.68;100.00;99382.31;4999577;28;20304;-70
2023/12/11 09:08:42;;;;;;;8.53;1.43;;;;;;;7.76;100.00;99376.91;4999058;28;20568;-70
2023/12/11 09:11:08;;;;;;;6.70;2.27;;;;;;;7.85;100.00;99382.78;4996794;28;20215;-68
2023/12/11 09:13:35;;;;;;;2.90;1.20;;;;;;;7.95;100.00;99373.63;4998933;28;20445;-70
2023/12/11 09:16:01;;;;;;;8.97;1.50;;;;;;;8.02;100.00;99373.84;4991190;28;20548;-71
2023/12/11 09:18:29;;;;;;;3.47;1.23;;;;;;;8.06;99.48;99369.41;4998382;28;20218;-70
2023/12/11 09:20:55;;;;;;;6.97;1.60;;;;;;;8.11;100.00;99362.03;4999629;28;20661;-70
2023/12/11 09:23:22;;;;;;;6.57;1.60;;;;;;;8.18;100.00;99367.47;5001529;28;20201;-69
2023/12/11 09:25:48;;;;;;;3.20;1.40;;;;;;;8.21;98.72;99369.47;4999214;28;20210;-70
2023/12/11 09:28:14;;;;;;;3.00;1.60;;;;;;;8.27;98.47;99357.59;4997552;28;20250;-70
2023/12/11 09:30:40;;;;;;;2.47;1.73;;;;;;;8.30;98.38;99350.88;4998301;28;20451;-70
2023/12/11 09:33:07;;;;;;;4.63;1.03;;;;;;;8.35;98.21;99345.38;4997106;28;20202;-70
2023/12/11 09:35:34;;;;;;;6.83;1.20;;;;;;;8.40;97.06;99345.91;4998357;28;20234;-70
2023/12/11 09:38:01;;;;;;;4.50;1.00;;;;;;;8.47;100.00;99350.53;4997886;28;20226;-68
2023/12/11 09:40:27;;;;;;;2.10;1.10;;;;;;;8.53;96.95;99334.16;5002508;28;20211;-70
2023/12/11 09:42:53;;;;;;;3.20;1.13;;;;;;;8.56;97.10;99330.84;4996408;28;20217;-70
2023/12/11 09:45:21;;;;;;;8.13;1.50;;;;;;;8.61;98.19;99330.59;4994539;28;20214;-70
2023/12/11 09:47:49;;;;;;;6.00;1.63;;;;;;;8.66;96.69;99329.56;5001112;28;20231;-70
2023/12/11 09:50:16;;;;;;;4.50;1.07;;;;;;;8.73;97.92;99337.59;4997856;28;20241;-70
2023/12/11 09:52:44;;;;;;;3.83;1.30;;;;;;;8.77;97.49;99335.81;5001577;28;20209;-70
2023/12/11 09:55:11;;;;;;;5.07;1.30;;;;;;;8.82;98.88;99325.81;4999169;28;20204;-70
2023/12/11 09:57:38;;;;;;;4.43;1.37;;;;;;;8.86;98.34;99328.50;5002284;28;20223;-70
2023/12/11 10:00:09;;;;;;;5.47;1.30;;;;;;;8.91;97.63;99322.97;4997685;28;20212;-70
2023/12/11 10:02:38;;;;;;;3.27;1.10;;;;;;;8.97;96.90;99332.13;4998039;28;20212;-70
2023/12/11 10:05:07;;;;;;;5.20;1.67;;;;;;;9.02;96.46;99332.63;4995984;28;20209;-70
2023/12/11 10:07:35;;;;;;;3.47;1.20;;;;;;;9.09;95.96;99339.88;5000950;28;20812;-70
2023/12/11 10:10:19;;;;;;;2.27;1.07;;;;;;;9.18;96.71;99337.81;4996780;28;20219;-70
2023/12/11 10:12:46;;;;;;;7.03;1.30;;;;;;;9.26;95.88;99326.34;4996152;28;20685;-70
2023/12/11 10:15:19;;;;;;;3.83;1.50;;;;;;;9.36;94.62;99331.81;4997636;28;20212;-68
2023/12/11 10:17:46;;;;;;;4.20;1.80;;;;;;;9.46;93.72;99318.06;4996762;28;20225;-70
2023/12/11 10:20:16;;;;;;;2.63;1.20;;;;;;;9.57;93.76;99323.56;4998352;28;20679;-70
2023/12/11 10:22:43;;;;;;;3.40;1.40;;;;;;;9.65;93.49;99325.19;5000532;28;20288;-70
2023/12/11 10:25:09;;;;;;;3.90;1.20;;;;;;;9.72;92.27;99314.78;4997150;28;20215;-69
2023/12/11 10:27:37;;;;;;;4.13;1.30;;;;;;;9.77;91.74;99322.41;4995181;28;20755;-70
2023/12/11 10:30:08;;;;;;;5.13;1.27;;;;;;;9.82;92.61;99330.78;4997022;28;20211;-68
2023/12/11 10:32:34;;;;;;;3.50;1.13;;;;;;;9.84;91.18;99341.00;4995720;28;20646;-70
2023/12/11 10:35:01;;;;;;;2.07;1.10;;;;;;;9.82;93.46;99325.53;5000004;28;20602;-71
2023/12/11 10:37:29;;;;;;;5.20;1.30;;;;;;;9.75;93.83;99340.44;4995910;28;20228;-71
2023/12/11 10:39:56;;;;;;;3.43;1.10;;;;;;;9.71;96.27;99336.97;4998045;28;20793;-71
2023/12/11 10:42:23;;;;;;;3.13;1.27;;;;;;;9.63;96.63;99327.44;4998028;28;20201;-70
2023/12/11 10:44:51;;;;;;;5.43;1.30;;;;;;;9.54;95.33;99334.78;4996033;28;20208;-71
2023/12/11 10:47:18;;;;;;;6.23;1.30;;;;;;;9.52;100.00;99323.84;4996555;28;20456;-71
2023/12/11 10:49:45;;;;;;;5.60;1.70;;;;;;;9.40;97.12;99322.09;5000446;28;20215;-70
2023/12/11 10:52:12;;;;;;;7.40;1.30;;;;;;;9.36;98.55;99318.63;4997936;28;20287;-69
2023/12/11 10:54:41;;;;;;;4.00;1.23;;;;;;;9.31;98.76;99326.81;4999403;28;20749;-70
2023/12/11 10:57:12;;;;;;;4.77;1.37;;;;;;;9.30;99.32;99316.63;4995906;28;20234;-70
2023/12/11 10:59:38;;;;;;;4.07;1.33;;;;;;;9.26;100.00;99318.44;5000791;28;20200;-69
2023/12/11 11:02:08;;;;;;;4.13;1.30;;;;;;;9.23;99.84;99313.84;4996239;28;20582;-68
2023/12/11 11:04:39;;;;;;;3.37;1.27;;;;;;;9.17;99.60;99315.25;4998028;28;20434;-70
2023/12/11 11:07:11;;;;;;;6.03;1.30;;;;;;;9.16;99.23;99314.47;4999407;28;20231;-68
2023/12/11 11:09:49;;;;;;;6.20;1.43;;;;;;;9.15;100.00;99317.44;4999603;28;20499;-70
2023/12/11 11:12:27;;;;;;;5.70;1.47;;;;;;;9.13;99.59;99320.44;4993485;28;20286;-70
2023/12/11 11:14:53;;;;;;;2.53;1.03;;;;;;;9.12;99.55;99321.53;4997520;28;20204;-70
2023/12/11 11:17:21;;;;;;;4.73;1.20;;;;;;;9.09;100.00;99322.22;5023500;22;20231;-73
2023/12/11 11:20:08;;;;;;;4.80;1.60;;;;;;;9.04;99.55;99332.25;5030179;28;20200;-73
2023/12/11 11:22:35;;;;;;;5.50;1.43;;;;;;;8.98;100.00;99323.13;5034780;28;20209;-71
2023/12/11 11:25:36;;;;;;;6.43;2.00;;;;;;;8.91;100.00;99318.44;5027601;28;20211;-72
2023/12/11 11:28:03;;;;;;;4.97;1.43;;;;;;;8.90;100.00;99316.94;5020403;28;20227;-73
2023/12/11 11:30:50;;;;;;;4.03;1.40;;;;;;;8.83;100.00;99314.16;5014279;28;20213;-72
2023/12/11 11:33:22;;;;;;;7.30;1.20;;;;;;;8.79;100.00;99300.16;5019529;28;20630;-74
2023/12/11 11:35:53;;;;;;;4.63;1.60;;;;;;;8.77;100.00;99307.66;5010506;28;20204;-72